Time;durP1;ratioP1;P1;durP2;ratioP2;P2;SDS_P1;SDS_P2;PMS_P1;PMS_P2;Temp;Humidity;BMP_temperature;BMP_pressure;BME280_temperature;BME280_humidity;BME280_pressure;Samples;Min_cycle;Max_cycle;Signal;HPM_P1;HPM_P2
2023/03/14 00:00:12;;;;;;;7.53;2.17;;;10.70;99.90;;;;;;4925001;29;20067;-88
2023/03/14 00:02:39;;;;;;;3.35;1.80;;;10.70;99.90;;;;;;4909964;29;20501;-88
2023/03/14 00:05:07;;;;;;;5.38;1.77;;;10.70;99.90;;;;;;4892093;29;20601;-88
2023/03/14 00:07:37;;;;;;;4.43;1.70;;;10.70;99.90;;;;;;4905583;29;20047;-88
2023/03/14 00:10:05;;;;;;;5.93;1.73;;;10.70;99.90;;;;;;4893522;29;20219;-87
2023/03/14 00:12:32;;;;;;;7.55;2.55;;;10.70;99.90;;;;;;4926026;29;20051;-88
2023/03/14 00:15:03;;;;;;;8.57;2.47;;;10.70;99.90;;;;;;4893585;29;20475;-87
2023/03/14 00:17:30;;;;;;;6.93;2.00;;;10.60;99.90;;;;;;4893193;29;20122;-87
2023/03/14 00:20:03;;;;;;;4.20;1.77;;;10.50;99.90;;;;;;4906848;29;20409;-87
2023/03/14 00:22:31;;;;;;;;;;;10.40;99.90;;;;;;4899947;29;20052;-87
2023/03/14 00:24:58;;;;;;;5.70;2.13;;;10.40;99.90;;;;;;4907149;29;19923;-87
2023/03/14 00:27:24;;;;;;;7.97;2.60;;;10.30;99.90;;;;;;4923944;29;20140;-87
2023/03/14 00:29:51;;;;;;;5.47;2.58;;;10.20;99.90;;;;;;4894901;29;20669;-87
2023/03/14 00:32:18;;;;;;;4.95;1.67;;;10.20;99.90;;;;;;4893589;29;20075;-87
2023/03/14 00:34:45;;;;;;;5.03;1.90;;;10.10;99.90;;;;;;4910418;29;20056;-88
2023/03/14 00:37:12;;;;;;;5.03;1.40;;;10.10;99.90;;;;;;4909977;29;20130;-88
2023/03/14 00:39:39;;;;;;;4.07;1.40;;;10.00;99.90;;;;;;4908989;29;20527;-88
2023/03/14 00:42:06;;;;;;;3.28;1.40;;;10.00;99.90;;;;;;4909288;29;20056;-87
2023/03/14 00:44:33;;;;;;;3.35;1.55;;;10.00;99.90;;;;;;4908199;29;20074;-87
2023/03/14 00:47:00;;;;;;;2.35;1.00;;;10.00;99.90;;;;;;4926215;29;20051;-87
2023/03/14 00:49:26;;;;;;;4.45;1.10;;;10.00;99.90;;;;;;4909454;29;20162;-88
2023/03/14 00:51:53;;;;;;;2.58;1.23;;;9.90;99.90;;;;;;4906794;29;20144;-89
2023/03/14 00:54:20;;;;;;;3.45;1.45;;;9.90;99.90;;;;;;4893550;29;20058;-88
2023/03/14 00:56:47;;;;;;;3.13;1.20;;;9.90;99.90;;;;;;4894922;29;20043;-89
2023/03/14 00:59:15;;;;;;;2.40;0.80;;;9.90;99.90;;;;;;4898019;29;20142;-89
2023/03/14 01:01:42;;;;;;;4.10;1.35;;;9.90;99.90;;;;;;4912849;29;20051;-89
2023/03/14 01:04:09;;;;;;;2.75;0.95;;;9.90;99.90;;;;;;4898115;29;20060;-89
2023/03/14 01:06:37;;;;;;;2.47;1.05;;;9.90;99.90;;;;;;4927452;29;20367;-88
2023/03/14 01:09:04;;;;;;;2.67;1.00;;;9.80;99.90;;;;;;4915556;29;20476;-88
2023/03/14 01:11:33;;;;;;;1.98;0.80;;;9.80;99.90;;;;;;4915632;29;20055;-88
2023/03/14 01:14:00;;;;;;;1.60;0.70;;;9.80;99.90;;;;;;4899776;29;20060;-89
2023/03/14 01:16:28;;;;;;;1.50;0.90;;;9.90;99.90;;;;;;4915093;29;20047;-89
2023/03/14 01:18:55;;;;;;;0.88;0.52;;;9.80;99.90;;;;;;4900028;29;20166;-88
2023/03/14 01:21:23;;;;;;;1.77;0.80;;;9.80;99.90;;;;;;4898875;29;20116;-88
2023/03/14 01:23:51;;;;;;;1.25;0.50;;;9.80;99.90;;;;;;4915181;29;20051;-88
2023/03/14 01:26:20;;;;;;;3.42;0.88;;;9.80;99.90;;;;;;4916065;29;20143;-88
2023/03/14 01:28:47;;;;;;;3.95;1.35;;;9.80;99.90;;;;;;4914881;29;20091;-86
2023/03/14 01:31:14;;;;;;;3.65;1.42;;;9.80;99.90;;;;;;4912592;29;20594;-79
2023/03/14 01:33:40;;;;;;;2.65;0.90;;;9.40;99.90;;;;;;4912368;29;20400;-81
2023/03/14 01:36:08;;;;;;;3.53;0.90;;;9.00;99.90;;;;;;4926101;29;20110;-81
2023/03/14 01:38:36;;;;;;;1.17;0.50;;;8.60;99.90;;;;;;4895383;29;20063;-82
2023/03/14 01:41:03;;;;;;;2.65;0.80;;;8.30;99.90;;;;;;4912131;29;20051;-82
2023/03/14 01:43:30;;;;;;;1.95;0.70;;;8.10;99.90;;;;;;4927478;29;20078;-83
2023/03/14 01:46:06;;;;;;;1.20;0.50;;;7.90;99.90;;;;;;4911063;29;20048;-82
2023/03/14 01:48:47;;;;;;;0.57;0.40;;;7.80;99.90;;;;;;4911245;29;20058;-83
2023/03/14 01:51:26;;;;;;;0.60;0.50;;;7.80;99.90;;;;;;4911771;29;20083;-83
2023/03/14 01:53:54;;;;;;;1.40;0.63;;;7.70;99.90;;;;;;4911245;29;20051;-83
2023/03/14 01:56:21;;;;;;;0.50;0.45;;;7.70;99.90;;;;;;4912175;29;20059;-83
2023/03/14 01:58:48;;;;;;;0.32;0.32;;;7.60;99.90;;;;;;4912004;29;20131;-83
2023/03/14 02:01:17;;;;;;;0.80;0.50;;;7.60;99.90;;;;;;4911932;29;20138;-83
2023/03/14 02:03:58;;;;;;;0.85;0.47;;;7.60;99.90;;;;;;4911528;29;20440;-83
2023/03/14 02:06:28;;;;;;;0.40;0.40;;;7.60;99.90;;;;;;4905973;29;20084;-84
2023/03/14 02:08:55;;;;;;;0.45;0.40;;;7.50;99.90;;;;;;4924388;29;20040;-83
2023/03/14 02:11:23;;;;;;;0.93;0.40;;;7.40;99.90;;;;;;4911546;29;20142;-83
2023/03/14 02:13:50;;;;;;;1.33;0.57;;;7.30;99.90;;;;;;4912232;29;20415;-84
2023/03/14 02:16:17;;;;;;;0.85;0.50;;;7.20;99.90;;;;;;4910790;29;20056;-85
2023/03/14 02:18:44;;;;;;;0.77;0.47;;;7.10;99.90;;;;;;4928890;29;20118;-85
2023/03/14 02:21:38;;;;;;;0.95;0.50;;;7.10;99.90;;;;;;4895583;29;20456;-85
2023/03/14 02:24:25;;;;;;;;;;;7.10;99.90;;;;;;4915507;29;20052;-85
2023/03/14 02:27:06;;;;;;;0.52;0.40;;;7.10;99.90;;;;;;4898766;29;20008;-85
2023/03/14 02:29:34;;;;;;;3.35;0.65;;;7.00;99.90;;;;;;4928933;29;20056;-85
2023/03/14 02:32:01;;;;;;;0.80;0.50;;;7.00;99.90;;;;;;4574012;29;10000157;-86
2023/03/14 02:34:28;;;;;;;0.75;0.68;;;7.00;99.90;;;;;;4897861;29;20087;-87
2023/03/14 02:36:55;;;;;;;1.15;0.50;;;7.00;99.90;;;;;;4926823;29;20076;-86
2023/03/14 02:39:26;;;;;;;0.85;0.47;;;7.00;99.90;;;;;;4900055;29;20123;-87
2023/03/14 02:41:53;;;;;;;1.35;0.50;;;7.00;99.90;;;;;;4915958;29;20051;-85
2023/03/14 02:44:19;;;;;;;0.98;0.60;;;7.00;99.90;;;;;;4918796;29;20476;-87
2023/03/14 02:46:46;;;;;;;0.70;0.68;;;7.00;99.90;;;;;;4588707;29;9999646;-87
2023/03/14 02:49:14;;;;;;;2.03;0.60;;;7.00;99.90;;;;;;4935207;29;20059;-87
2023/03/14 02:51:41;;;;;;;1.52;0.70;;;7.00;99.90;;;;;;4937071;29;20187;-87
2023/03/14 02:54:08;;;;;;;1.70;0.82;;;7.00;99.90;;;;;;4937011;29;20062;-87
2023/03/14 02:56:35;;;;;;;1.85;0.93;;;6.90;99.90;;;;;;4937526;29;20051;-88
2023/03/14 02:59:05;;;;;;;1.55;0.70;;;6.80;99.90;;;;;;4937820;29;20159;-87
2023/03/14 03:01:33;;;;;;;3.30;1.13;;;6.70;99.90;;;;;;4953099;29;20123;-88
2023/03/14 03:04:00;;;;;;;3.30;0.70;;;6.70;99.90;;;;;;4953852;28;20047;-87
2023/03/14 03:06:27;;;;;;;2.90;0.70;;;6.70;99.90;;;;;;4937661;29;20055;-88
2023/03/14 03:08:54;;;;;;;4.18;1.20;;;6.60;99.90;;;;;;4937336;29;20603;-88
2023/03/14 03:11:21;;;;;;;3.10;0.60;;;6.50;99.90;;;;;;4937953;29;20399;-88
2023/03/14 03:13:48;;;;;;;1.15;0.65;;;6.40;99.90;;;;;;4937815;29;20133;-88
2023/03/14 03:16:14;;;;;;;1.48;0.60;;;6.30;99.90;;;;;;4937854;29;20274;-88
2023/03/14 03:18:41;;;;;;;1.38;0.68;;;6.20;99.90;;;;;;4936974;29;20070;-88
2023/03/14 03:21:09;;;;;;;2.50;0.68;;;6.10;99.90;;;;;;4953033;29;20066;-88
2023/03/14 03:23:36;;;;;;;0.95;0.45;;;6.10;99.90;;;;;;4937703;29;20055;-87
2023/03/14 03:26:03;;;;;;;1.45;0.55;;;6.00;99.90;;;;;;4922503;29;20091;-88
2023/03/14 03:28:29;;;;;;;1.20;0.60;;;5.90;99.90;;;;;;4937766;29;20086;-88
2023/03/14 03:30:56;;;;;;;2.38;0.80;;;5.90;99.90;;;;;;4937656;29;20094;-87
2023/03/14 03:33:24;;;;;;;1.58;0.65;;;5.90;99.90;;;;;;4936854;29;20055;-87
2023/03/14 03:35:52;;;;;;;0.85;0.40;;;5.80;99.90;;;;;;4938287;29;20131;-87
2023/03/14 03:38:20;;;;;;;1.33;0.52;;;5.80;99.90;;;;;;4936353;29;20150;-86
2023/03/14 03:40:46;;;;;;;0.70;0.40;;;5.80;99.90;;;;;;4933943;29;20047;-87
2023/03/14 03:43:13;;;;;;;0.73;0.47;;;5.70;99.90;;;;;;4935846;29;20086;-87
2023/03/14 03:45:40;;;;;;;0.65;0.40;;;5.70;99.90;;;;;;4920952;29;20134;-86
2023/03/14 03:48:07;;;;;;;1.60;0.47;;;5.70;99.90;;;;;;4936867;29;20047;-85
2023/03/14 03:50:33;;;;;;;0.77;0.20;;;5.70;99.90;;;;;;4937691;29;20185;-86
2023/03/14 03:53:01;;;;;;;0.93;0.60;;;5.60;99.90;;;;;;4937901;28;20383;-87
2023/03/14 03:55:28;;;;;;;0.68;0.40;;;5.70;99.90;;;;;;4952718;29;20062;-86
2023/03/14 03:57:55;;;;;;;0.88;0.60;;;5.60;99.90;;;;;;4944382;29;20078;-86
2023/03/14 04:00:22;;;;;;;0.32;0.30;;;5.60;99.90;;;;;;4936321;29;20771;-86
2023/03/14 04:02:49;;;;;;;1.35;0.40;;;5.70;99.90;;;;;;4936817;29;20197;-84
2023/03/14 04:05:16;;;;;;;2.72;0.50;;;5.70;99.90;;;;;;4933787;29;20054;-87
2023/03/14 04:07:43;;;;;;;2.08;0.47;;;5.70;99.90;;;;;;4936589;29;20051;-87
2023/03/14 04:10:10;;;;;;;1.70;0.75;;;5.60;99.90;;;;;;4936414;29;20054;-86
2023/03/14 04:12:37;;;;;;;3.20;0.77;;;5.70;99.90;;;;;;4921207;28;20099;-86
2023/03/14 04:15:04;;;;;;;1.85;0.70;;;5.60;99.90;;;;;;4920595;29;20644;-85
2023/03/14 04:17:31;;;;;;;2.45;0.82;;;5.60;99.90;;;;;;4920364;29;20523;-85
2023/03/14 04:19:58;;;;;;;2.83;1.20;;;5.60;99.90;;;;;;4931353;29;20145;-84
2023/03/14 04:22:24;;;;;;;1.50;0.68;;;5.60;99.90;;;;;;4941579;28;20158;-85
2023/03/14 04:24:51;;;;;;;3.60;0.57;;;5.60;99.90;;;;;;4931195;29;20134;-86
2023/03/14 04:27:18;;;;;;;1.20;0.70;;;5.60;99.90;;;;;;4933979;29;20142;-83
2023/03/14 04:29:45;;;;;;;2.33;0.90;;;5.60;99.90;;;;;;4919336;29;20051;-85
2023/03/14 04:32:11;;;;;;;3.78;0.90;;;5.60;99.90;;;;;;4931092;29;20048;-85
2023/03/14 04:34:38;;;;;;;2.67;0.68;;;5.60;99.90;;;;;;4934630;29;20145;-85
2023/03/14 04:37:05;;;;;;;3.22;0.60;;;5.60;99.90;;;;;;4933637;29;20618;-85
2023/03/14 04:39:32;;;;;;;3.60;0.90;;;5.60;99.90;;;;;;4918938;29;20047;-84
2023/03/14 04:41:58;;;;;;;1.88;0.52;;;5.60;99.90;;;;;;4950612;29;20043;-84
2023/03/14 04:44:25;;;;;;;1.83;0.75;;;5.60;99.90;;;;;;4935089;29;20631;-84
2023/03/14 04:46:52;;;;;;;2.60;0.98;;;5.60;99.90;;;;;;4914899;29;20067;-83
2023/03/14 04:49:19;;;;;;;2.03;0.90;;;5.60;99.90;;;;;;4950509;29;20043;-84
2023/03/14 04:51:46;;;;;;;1.60;0.85;;;5.60;99.90;;;;;;4932456;29;20089;-84
2023/03/14 04:54:12;;;;;;;2.10;0.75;;;5.60;99.90;;;;;;4949773;29;20065;-84
2023/03/14 04:56:39;;;;;;;2.00;0.80;;;5.60;99.90;;;;;;4949895;28;20051;-84
2023/03/14 04:59:06;;;;;;;1.63;0.80;;;5.60;99.90;;;;;;4950898;29;20079;-84
2023/03/14 05:01:33;;;;;;;4.45;1.02;;;5.50;99.90;;;;;;4947060;29;20059;-85
2023/03/14 05:03:59;;;;;;;4.72;1.15;;;5.50;99.90;;;;;;4937741;28;20058;-85
2023/03/14 05:06:26;;;;;;;3.13;1.13;;;5.50;99.90;;;;;;4932805;29;20118;-84
2023/03/14 05:08:53;;;;;;;4.05;0.82;;;5.50;99.90;;;;;;4942847;29;20079;-84
2023/03/14 05:11:20;;;;;;;1.83;0.60;;;5.40;99.90;;;;;;4951417;29;20051;-85
2023/03/14 05:13:47;;;;;;;3.53;0.82;;;5.40;99.90;;;;;;4949233;29;20051;-85
2023/03/14 05:16:14;;;;;;;4.32;1.10;;;5.40;99.90;;;;;;4937948;29;20138;-85
2023/03/14 05:18:41;;;;;;;5.07;1.23;;;5.40;99.90;;;;;;4950244;29;20047;-83
2023/03/14 05:21:08;;;;;;;4.90;1.67;;;5.40;99.90;;;;;;4937250;29;20507;-84
2023/03/14 05:23:35;;;;;;;4.60;1.10;;;5.40;99.90;;;;;;4949576;29;20142;-86
2023/03/14 05:26:02;;;;;;;3.58;1.10;;;5.40;99.90;;;;;;4944601;29;20056;-84
2023/03/14 05:28:29;;;;;;;5.18;1.10;;;5.40;99.90;;;;;;4918221;29;20047;-85
2023/03/14 05:30:56;;;;;;;7.30;1.65;;;5.50;99.90;;;;;;4948404;29;20048;-84
2023/03/14 05:33:23;;;;;;;2.72;1.05;;;5.50;99.90;;;;;;4932691;29;20146;-85
2023/03/14 05:35:50;;;;;;;4.70;1.25;;;5.50;99.90;;;;;;4948915;29;20071;-84
2023/03/14 05:38:17;;;;;;;4.55;1.10;;;5.50;99.90;;;;;;4945244;28;20601;-85
2023/03/14 05:40:45;;;;;;;3.95;1.15;;;5.60;99.90;;;;;;4939994;28;20142;-85
2023/03/14 05:43:13;;;;;;;5.65;1.45;;;5.60;99.90;;;;;;4953056;28;20057;-84
2023/03/14 05:45:40;;;;;;;5.63;1.20;;;5.60;99.90;;;;;;4936820;29;20086;-84
2023/03/14 05:48:07;;;;;;;3.08;1.00;;;5.60;99.90;;;;;;4935471;28;20058;-84
2023/03/14 05:50:34;;;;;;;4.25;1.20;;;5.60;99.90;;;;;;4919218;29;20055;-83
2023/03/14 05:53:01;;;;;;;4.53;1.13;;;5.60;99.90;;;;;;4933070;29;20119;-84
2023/03/14 05:55:28;;;;;;;3.78;1.38;;;5.60;99.90;;;;;;4951295;28;20055;-84
2023/03/14 05:57:55;;;;;;;3.35;1.05;;;5.60;99.90;;;;;;4935906;28;20137;-84
2023/03/14 06:00:22;;;;;;;5.32;1.23;;;5.70;99.90;;;;;;4918134;29;20118;-85
2023/03/14 06:02:49;;;;;;;3.72;0.98;;;5.60;99.90;;;;;;4930090;29;20134;-83
2023/03/14 06:05:16;;;;;;;4.40;1.27;;;5.70;99.90;;;;;;4930374;29;20047;-83
2023/03/14 06:07:43;;;;;;;5.35;1.30;;;5.60;99.90;;;;;;4930953;29;20129;-86
2023/03/14 06:10:10;;;;;;;3.97;1.27;;;5.60;99.90;;;;;;4941315;28;20055;-84
2023/03/14 06:12:37;;;;;;;6.15;1.30;;;5.60;99.90;;;;;;4916636;29;20130;-84
2023/03/14 06:15:04;;;;;;;4.63;1.17;;;5.60;99.90;;;;;;4917155;29;20054;-85
2023/03/14 06:17:31;;;;;;;3.03;1.13;;;5.60;99.90;;;;;;4924971;29;20055;-84
2023/03/14 06:19:58;;;;;;;5.30;1.05;;;5.70;99.90;;;;;;4936996;28;20049;-84
2023/03/14 06:22:24;;;;;;;5.18;1.55;;;5.70;99.90;;;;;;4930335;28;20464;-84
2023/03/14 06:24:51;;;;;;;5.32;1.20;;;5.70;99.90;;;;;;4943095;29;20110;-84
2023/03/14 06:27:18;;;;;;;4.15;1.30;;;5.70;99.90;;;;;;4926854;29;20319;-83
2023/03/14 06:29:45;;;;;;;4.57;1.45;;;5.80;99.90;;;;;;4926543;29;20061;-82
2023/03/14 06:32:12;;;;;;;2.15;1.02;;;5.80;99.90;;;;;;4935798;28;20051;-81
2023/03/14 06:34:40;;;;;;;4.05;1.20;;;5.80;99.90;;;;;;4936715;28;20051;-82
2023/03/14 06:37:07;;;;;;;5.78;1.20;;;5.90;99.90;;;;;;4912246;29;20065;-84
2023/03/14 06:39:34;;;;;;;2.17;0.70;;;5.90;99.90;;;;;;4942885;28;20820;-83
2023/03/14 06:42:01;;;;;;;3.65;1.75;;;5.90;99.90;;;;;;4908335;29;20472;-83
2023/03/14 06:44:28;;;;;;;6.18;1.13;;;5.90;99.90;;;;;;4895123;29;20126;-85
2023/03/14 06:46:55;;;;;;;4.00;1.27;;;5.90;99.90;;;;;;4939330;29;20615;-83
2023/03/14 06:49:22;;;;;;;4.80;1.35;;;5.90;99.90;;;;;;4940580;29;20106;-83
2023/03/14 06:51:48;;;;;;;3.83;1.27;;;5.90;99.90;;;;;;4904174;29;20134;-84
2023/03/14 06:54:15;;;;;;;8.13;1.38;;;5.90;99.90;;;;;;4931737;28;20451;-84
2023/03/14 06:56:42;;;;;;;4.07;1.23;;;5.90;99.90;;;;;;4924442;28;20101;-85
2023/03/14 06:59:09;;;;;;;4.82;1.30;;;6.00;99.90;;;;;;4940148;28;20047;-85
2023/03/14 07:01:36;;;;;;;5.95;1.80;;;6.00;99.90;;;;;;4921133;29;20055;-84
2023/03/14 07:04:03;;;;;;;4.93;1.48;;;6.00;99.90;;;;;;4903917;29;20054;-83
2023/03/14 07:06:30;;;;;;;2.63;1.00;;;6.00;99.90;;;;;;4902801;29;20142;-82
2023/03/14 07:08:57;;;;;;;4.70;1.27;;;6.00;99.90;;;;;;4917833;29;20047;-81
2023/03/14 07:11:25;;;;;;;6.68;1.33;;;6.00;99.90;;;;;;4912133;29;20047;-90
2023/03/14 07:13:52;;;;;;;3.78;1.30;;;6.00;99.90;;;;;;4941649;28;20053;-94
2023/03/14 07:16:21;;;;;;;4.07;1.20;;;6.00;99.90;;;;;;4926544;29;20059;-91
2023/03/14 07:18:49;;;;;;;3.65;1.33;;;6.10;99.90;;;;;;4928818;29;20047;-93
2023/03/14 07:21:18;;;;;;;3.83;1.20;;;6.10;99.90;;;;;;4894815;29;20078;-92
2023/03/14 07:23:47;;;;;;;3.10;0.90;;;6.10;99.90;;;;;;4912462;29;20154;-92
2023/03/14 07:26:16;;;;;;;6.40;1.27;;;6.20;99.90;;;;;;4913300;29;20070;-91
2023/03/14 07:28:43;;;;;;;3.42;1.10;;;6.20;99.90;;;;;;4942341;28;20114;-92
2023/03/14 07:31:09;;;;;;;4.22;1.55;;;6.20;99.90;;;;;;4903410;29;20111;-84
2023/03/14 07:33:37;;;;;;;1.42;0.68;;;6.20;99.90;;;;;;4906120;29;20350;-84
2023/03/14 07:36:04;;;;;;;3.95;1.20;;;6.30;99.90;;;;;;4907093;29;20118;-85
2023/03/14 07:38:31;;;;;;;2.47;0.88;;;6.30;99.90;;;;;;4906748;29;20922;-86
2023/03/14 07:41:01;;;;;;;3.72;1.27;;;6.30;99.90;;;;;;4909007;29;20145;-85
2023/03/14 07:43:28;;;;;;;3.78;1.30;;;6.30;99.90;;;;;;4911368;29;20574;-85
2023/03/14 07:45:55;;;;;;;4.25;1.60;;;6.20;99.90;;;;;;4947809;29;20055;-85
2023/03/14 07:48:26;;;;;;;5.88;1.65;;;6.20;99.90;;;;;;4931099;29;20054;-86
2023/03/14 07:50:54;;;;;;;3.63;1.20;;;6.10;99.90;;;;;;4898679;29;20047;-85
2023/03/14 07:53:21;;;;;;;5.70;1.20;;;6.20;99.90;;;;;;4914133;29;20055;-86
2023/03/14 07:55:48;;;;;;;2.92;1.00;;;6.20;99.90;;;;;;4915083;29;20082;-85
2023/03/14 07:58:15;;;;;;;4.22;1.33;;;6.20;99.90;;;;;;4930448;29;20111;-84
2023/03/14 08:00:43;;;;;;;4.10;1.10;;;6.20;99.90;;;;;;4946270;29;20137;-85
2023/03/14 08:03:10;;;;;;;4.47;1.00;;;6.10;99.90;;;;;;4927221;29;20073;-85
2023/03/14 08:05:37;;;;;;;3.95;1.08;;;6.00;99.90;;;;;;4925949;29;20514;-84
2023/03/14 08:08:04;;;;;;;2.63;1.20;;;5.80;99.90;;;;;;4928941;29;20530;-84
2023/03/14 08:10:31;;;;;;;3.47;1.30;;;5.80;99.90;;;;;;4953952;28;20055;-84
2023/03/14 08:12:58;;;;;;;2.97;1.02;;;5.60;99.90;;;;;;4942396;29;20162;-86
2023/03/14 08:15:25;;;;;;;2.42;0.88;;;5.60;99.90;;;;;;4929723;29;20043;-85
2023/03/14 08:17:53;;;;;;;2.55;1.00;;;5.50;99.90;;;;;;4914790;29;20106;-85
2023/03/14 08:20:21;;;;;;;2.75;0.75;;;5.50;99.90;;;;;;4897883;29;20525;-85
2023/03/14 08:22:48;;;;;;;3.08;1.00;;;5.40;99.90;;;;;;4898538;29;20541;-85
2023/03/14 08:25:15;;;;;;;2.38;1.00;;;5.40;99.90;;;;;;4918219;29;20189;-85
2023/03/14 08:27:42;;;;;;;2.45;0.75;;;5.40;99.90;;;;;;4915092;29;20059;-85
2023/03/14 08:30:11;;;;;;;2.28;0.80;;;5.40;99.90;;;;;;4934523;29;20127;-84
2023/03/14 08:32:38;;;;;;;1.75;0.77;;;5.30;99.90;;;;;;4958855;28;20051;-85
2023/03/14 08:35:05;;;;;;;1.25;0.75;;;5.30;99.90;;;;;;4913374;29;20109;-84
2023/03/14 08:37:35;;;;;;;1.65;0.65;;;5.30;99.90;;;;;;4913371;29;20146;-85
2023/03/14 08:40:07;;;;;;;1.65;0.68;;;5.30;99.90;;;;;;4913155;29;20123;-85
2023/03/14 08:42:33;;;;;;;1.08;0.50;;;5.20;99.90;;;;;;4927208;29;20062;-86
2023/03/14 08:45:00;;;;;;;0.47;0.45;;;5.20;99.90;;;;;;4910726;29;20047;-85
2023/03/14 08:47:27;;;;;;;1.35;0.73;;;5.20;99.90;;;;;;4911178;29;20098;-85
2023/03/14 08:49:54;;;;;;;0.95;0.50;;;5.20;99.90;;;;;;4910683;29;20047;-85
2023/03/14 08:52:21;;;;;;;2.15;0.80;;;5.10;99.90;;;;;;4929739;29;20139;-84
2023/03/14 08:54:48;;;;;;;1.38;0.60;;;5.10;99.90;;;;;;4929707;29;20126;-84
2023/03/14 08:57:15;;;;;;;0.90;0.77;;;5.00;99.90;;;;;;4930552;29;20083;-84
2023/03/14 08:59:42;;;;;;;0.77;0.50;;;4.90;99.90;;;;;;4929602;29;20351;-86
2023/03/14 09:02:11;;;;;;;0.73;0.50;;;4.90;99.90;;;;;;4921505;29;20271;-85
2023/03/14 09:04:39;;;;;;;0.63;0.55;;;4.90;99.90;;;;;;4930046;29;20051;-86
2023/03/14 09:07:06;;;;;;;1.10;0.50;;;4.90;99.90;;;;;;4929772;29;20169;-86
2023/03/14 09:09:33;;;;;;;1.15;0.63;;;4.90;99.90;;;;;;4929710;29;20358;-86
2023/03/14 09:12:00;;;;;;;1.52;0.60;;;5.00;99.90;;;;;;4937207;28;20091;-88
2023/03/14 09:14:27;;;;;;;0.80;0.70;;;5.00;99.90;;;;;;4941235;29;20075;-84
2023/03/14 09:16:54;;;;;;;1.80;1.05;;;5.00;99.90;;;;;;4899689;29;20419;-88
2023/03/14 09:19:21;;;;;;;2.17;0.65;;;5.00;99.90;;;;;;4926789;29;20062;-88
2023/03/14 09:21:48;;;;;;;1.38;0.80;;;5.10;99.90;;;;;;4931544;29;20082;-89
2023/03/14 09:24:16;;;;;;;4.78;0.80;;;5.00;99.90;;;;;;4929476;29;20467;-87
2023/03/14 09:26:44;;;;;;;0.93;0.63;;;5.00;99.90;;;;;;4946199;28;20286;-89
2023/03/14 09:29:10;;;;;;;1.20;0.65;;;5.00;99.90;;;;;;4929649;29;20063;-89
2023/03/14 09:31:38;;;;;;;0.70;0.60;;;5.00;99.90;;;;;;4929386;29;20055;-88
2023/03/14 09:34:04;;;;;;;1.92;0.57;;;5.10;99.90;;;;;;4939077;29;20062;-89
2023/03/14 09:36:32;;;;;;;2.47;0.80;;;5.00;99.90;;;;;;4944553;28;20051;-87
2023/03/14 09:38:58;;;;;;;2.55;0.85;;;5.00;99.90;;;;;;4945728;29;20079;-88
2023/03/14 09:41:30;;;;;;;4.18;2.17;;;4.90;99.90;;;;;;4912990;29;20062;-88
2023/03/14 09:44:06;;;;;;;2.63;1.30;;;4.90;99.90;;;;;;4904689;29;20043;-88
2023/03/14 09:46:34;;;;;;;1.98;1.05;;;4.90;99.90;;;;;;4919744;29;20107;-87
2023/03/14 09:49:01;;;;;;;2.53;0.90;;;4.90;99.90;;;;;;4923900;29;20893;-89
2023/03/14 09:51:28;;;;;;;2.05;0.88;;;4.90;99.90;;;;;;4913306;29;20065;-87
2023/03/14 09:53:55;;;;;;;3.35;1.38;;;4.70;99.90;;;;;;4925184;29;20051;-89
2023/03/14 09:56:30;;;;;;;3.90;1.33;;;4.60;99.90;;;;;;4930128;29;20056;-88
2023/03/14 09:59:02;;;;;;;2.92;1.20;;;4.40;99.90;;;;;;4948314;29;20126;-88
2023/03/14 10:01:31;;;;;;;3.75;0.90;;;4.40;99.90;;;;;;4918010;29;20451;-87
2023/03/14 10:04:04;;;;;;;6.97;1.05;;;4.40;99.90;;;;;;4918290;29;20392;-87
2023/03/14 10:06:31;;;;;;;1.58;0.95;;;4.40;99.90;;;;;;4917330;29;20150;-87
2023/03/14 10:08:58;;;;;;;1.88;0.90;;;4.40;99.90;;;;;;4917796;29;20138;-88
2023/03/14 10:11:26;;;;;;;1.98;0.98;;;4.40;99.90;;;;;;4902740;29;20165;-87
2023/03/14 10:14:04;;;;;;;3.35;0.95;;;4.40;99.90;;;;;;4931221;29;20379;-88
2023/03/14 10:16:33;;;;;;;1.38;0.75;;;4.50;99.90;;;;;;4948373;29;20561;-88
2023/03/14 10:19:05;;;;;;;2.65;1.00;;;4.60;99.90;;;;;;4917865;29;20089;-88
2023/03/14 10:21:36;;;;;;;3.78;1.02;;;4.70;99.90;;;;;;4917450;29;20051;-89
2023/03/14 10:24:18;;;;;;;2.60;0.90;;;4.80;99.90;;;;;;4900704;29;20061;-88
2023/03/14 10:26:48;;;;;;;3.33;0.95;;;4.90;99.90;;;;;;4929871;29;20371;-88
2023/03/14 10:29:16;;;;;;;3.35;1.13;;;5.00;99.90;;;;;;4932219;29;20047;-88
2023/03/14 10:32:03;;;;;;;5.15;1.10;;;5.10;99.90;;;;;;4918177;29;20050;-88
2023/03/14 10:34:37;;;;;;;2.08;1.55;;;5.20;99.90;;;;;;4949546;29;20186;-88
2023/03/14 10:37:21;;;;;;;5.28;1.60;;;5.30;99.90;;;;;;4932413;29;20097;-88
2023/03/14 10:39:55;;;;;;;2.63;1.13;;;5.40;99.90;;;;;;4933691;29;20130;-89
2023/03/14 10:42:29;;;;;;;4.30;1.58;;;5.50;99.90;;;;;;4934051;29;20053;-89
2023/03/14 10:44:58;;;;;;;2.53;1.10;;;5.50;99.90;;;;;;4932573;29;20472;-89
2023/03/14 10:47:26;;;;;;;4.80;1.30;;;5.70;99.90;;;;;;4916344;29;20458;-88
2023/03/14 10:49:53;;;;;;;3.03;1.08;;;5.80;99.90;;;;;;4928769;29;20401;-88
2023/03/14 10:52:29;;;;;;;3.38;1.13;;;5.90;99.90;;;;;;4922437;29;20078;-88
2023/03/14 10:55:11;;;;;;;2.60;1.50;;;6.10;99.90;;;;;;4935812;29;20579;-88
2023/03/14 10:57:41;;;;;;;3.50;1.52;;;6.50;99.90;;;;;;4942808;29;20341;-88
2023/03/14 11:00:16;;;;;;;3.13;1.20;;;6.60;99.90;;;;;;4925455;29;20094;-88
2023/03/14 11:03:07;;;;;;;2.55;1.00;;;6.70;99.90;;;;;;4915925;29;20555;-88
2023/03/14 11:05:43;;;;;;;4.90;1.50;;;6.60;99.90;;;;;;4947383;29;20078;-88
2023/03/14 11:08:20;;;;;;;4.22;1.27;;;6.70;99.90;;;;;;4945512;29;20145;-89
2023/03/14 11:10:49;;;;;;;3.90;1.58;;;6.80;99.90;;;;;;4914846;29;20557;-87
2023/03/14 11:13:54;;;;;;;3.00;1.45;;;6.90;99.90;;;;;;4932691;29;20055;-89
2023/03/14 11:16:40;;;;;;;3.75;1.20;;;7.20;99.90;;;;;;4949558;29;20106;-88
2023/03/14 11:19:25;;;;;;;3.80;1.15;;;7.50;99.90;;;;;;4946760;29;20051;-87
2023/03/14 11:22:18;;;;;;;3.75;1.95;;;7.60;99.90;;;;;;4929596;29;20087;-86
2023/03/14 11:25:03;;;;;;;7.28;1.85;;;7.50;99.90;;;;;;4929010;29;20164;-87
2023/03/14 11:28:27;;;;;;;5.65;2.00;;;7.40;99.90;;;;;;4946181;29;20093;-87
2023/03/14 11:30:59;;;;;;;2.40;1.25;;;7.40;99.90;;;;;;4901400;29;20048;-86
2023/03/14 11:33:39;;;;;;;3.20;1.15;;;7.40;99.90;;;;;;4923729;29;20385;-86
2023/03/14 11:36:10;;;;;;;6.40;1.38;;;7.60;99.90;;;;;;4910784;29;20179;-86
2023/03/14 11:38:45;;;;;;;5.13;1.45;;;7.60;99.90;;;;;;4892542;29;20195;-86
2023/03/14 11:41:25;;;;;;;2.25;1.20;;;7.70;99.90;;;;;;4925465;29;20452;-86
2023/03/14 11:43:57;;;;;;;4.38;1.40;;;7.70;99.90;;;;;;4928828;29;20562;-85
2023/03/14 11:46:38;;;;;;;5.60;1.73;;;7.80;99.90;;;;;;4912515;29;20051;-86
2023/03/14 11:49:17;;;;;;;5.75;1.65;;;8.00;99.90;;;;;;4931939;29;20360;-85
2023/03/14 11:51:46;;;;;;;5.22;1.30;;;8.00;99.90;;;;;;4929935;29;20310;-85
2023/03/14 11:54:42;;;;;;;4.38;1.25;;;8.00;99.90;;;;;;4939691;28;20136;-86
2023/03/14 11:57:23;;;;;;;2.90;1.42;;;8.10;99.90;;;;;;4939418;29;20555;-86
2023/03/14 11:59:57;;;;;;;3.33;1.20;;;8.30;99.90;;;;;;4925809;29;20066;-79
2023/03/14 12:02:38;;;;;;;2.22;1.17;;;8.60;99.90;;;;;;4941626;28;20055;-79
2023/03/14 12:05:23;;;;;;;6.32;1.67;;;8.60;99.90;;;;;;4918553;29;20232;-79
2023/03/14 12:08:08;;;;;;;5.88;2.13;;;8.80;99.90;;;;;;4927784;29;20051;-79
2023/03/14 12:10:42;;;;;;;4.32;1.42;;;9.20;99.90;;;;;;4942724;28;20055;-79
2023/03/14 12:13:10;;;;;;;3.85;1.60;;;9.30;99.90;;;;;;4928597;29;20055;-78
2023/03/14 12:15:43;;;;;;;4.53;1.85;;;9.50;99.90;;;;;;4910126;29;20059;-79
2023/03/14 12:18:32;;;;;;;3.80;1.60;;;9.40;99.90;;;;;;4922170;29;20454;-79
2023/03/14 12:21:07;;;;;;;4.57;1.85;;;9.40;99.90;;;;;;4915885;29;20051;-79
2023/03/14 12:23:55;;;;;;;4.93;2.10;;;9.20;99.90;;;;;;4921428;29;20070;-79
2023/03/14 12:26:26;;;;;;;2.85;1.13;;;9.00;99.90;;;;;;4909656;29;20043;-79
2023/03/14 12:29:00;;;;;;;3.63;1.25;;;9.60;99.90;;;;;;4922478;29;20466;-79
2023/03/14 12:31:30;;;;;;;3.38;1.27;;;9.80;99.90;;;;;;4939007;29;20061;-79
2023/03/14 12:34:09;;;;;;;4.20;1.80;;;10.10;99.90;;;;;;4936961;28;20050;-79
2023/03/14 12:36:50;;;;;;;2.53;1.20;;;10.40;99.90;;;;;;4951892;28;20058;-79
2023/03/14 12:39:44;;;;;;;5.05;1.67;;;10.60;99.90;;;;;;4942066;28;20047;-80
2023/03/14 12:42:22;;;;;;;5.57;2.20;;;9.90;99.90;;;;;;4921021;29;20055;-79
2023/03/14 12:45:15;;;;;;;5.22;1.20;;;9.30;99.90;;;;;;4906387;29;20051;-79
2023/03/14 12:47:43;;;;;;;4.82;1.77;;;9.00;99.90;;;;;;4922802;28;20467;-78
2023/03/14 12:50:15;;;;;;;8.00;2.22;;;8.80;99.90;;;;;;4915381;29;20269;-80
2023/03/14 12:52:52;;;;;;;4.90;1.70;;;9.00;99.90;;;;;;4915654;29;20085;-80
2023/03/14 12:55:29;;;;;;;4.22;1.52;;;9.30;99.90;;;;;;4915754;28;20199;-80
2023/03/14 12:58:11;;;;;;;3.75;1.58;;;9.60;99.90;;;;;;4946979;28;20047;-80
2023/03/14 13:00:39;;;;;;;3.25;1.33;;;9.80;99.90;;;;;;4924715;29;20059;-81
2023/03/14 13:03:15;;;;;;;4.32;1.55;;;9.90;99.90;;;;;;4908917;29;20055;-80
2023/03/14 13:05:53;;;;;;;2.38;1.20;;;9.70;99.90;;;;;;4940040;29;20082;-81
2023/03/14 13:08:40;;;;;;;5.88;1.70;;;10.00;99.90;;;;;;4909393;29;20138;-82
2023/03/14 13:11:19;;;;;;;4.72;1.45;;;10.50;99.90;;;;;;4942496;29;20062;-82